Time;durP1;ratioP1;P1;durP2;ratioP2;P2;SDS_P1;SDS_P2;PMS_P1;PMS_P2;Temp;Humidity;BMP_temperature;BMP_pressure;BME280_temperature;BME280_humidity;BME280_pressure;Samples;Min_cycle;Max_cycle;Signal;HPM_P1;HPM_P2
2023/05/06 00:02:48;;;;;;;22.10;11.65;;;;;;;;;;4990184;28;20060;-62
2023/05/06 00:06:29;;;;;;;21.90;12.50;;;;;;;;;;4991567;28;20494;-61
2023/05/06 00:10:10;;;;;;;22.13;11.77;;;;;;;;;;4989104;28;20179;-60
2023/05/06 00:13:50;;;;;;;28.08;11.82;;;;;;;;;;4987374;28;20093;-59
2023/05/06 00:17:32;;;;;;;18.85;10.60;;;;;;;;;;4989337;28;20579;-60
2023/05/06 00:21:12;;;;;;;18.27;10.82;;;;;;;;;;4995946;28;20046;-61
2023/05/06 00:24:52;;;;;;;18.90;10.00;;;;;;;;;;4987173;28;20053;-60
2023/05/06 00:28:33;;;;;;;17.73;9.35;;;;;;;;;;4989949;28;20076;-62
2023/05/06 00:32:13;;;;;;;14.80;8.70;;;;;;;;;;4988724;28;20180;-60
2023/05/06 00:35:53;;;;;;;21.85;9.52;;;;;;;;;;4989061;28;20520;-61
2023/05/06 00:39:34;;;;;;;21.08;9.30;;;;;;;;;;4989755;28;20068;-59
2023/05/06 00:43:14;;;;;;;18.75;9.50;;;;;;;;;;4991894;28;20541;-62
2023/05/06 00:46:16;;;;;;;25.25;9.15;;;;;;;;;;4984550;28;20050;-59
2023/05/06 00:48:43;;;;;;;16.00;9.52;;;;;;;;;;4986053;28;20061;-59
2023/05/06 00:51:49;;;;;;;16.60;8.90;;;;;;;;;;4990419;28;20555;-59
2023/05/06 00:55:29;;;;;;;20.50;10.05;;;;;;;;;;4987589;28;20077;-63
2023/05/06 00:59:09;;;;;;;17.65;10.43;;;;;;;;;;4989403;28;20390;-59
2023/05/06 01:02:50;;;;;;;23.02;10.23;;;;;;;;;;4989228;28;20565;-63
2023/05/06 01:06:33;;;;;;;20.80;10.25;;;;;;;;;;4988891;28;20433;-58
2023/05/06 01:10:32;;;;;;;21.58;10.77;;;;;;;;;;4987460;28;20073;-59
2023/05/06 01:14:19;;;;;;;19.95;10.40;;;;;;;;;;4942382;28;20146;-60
2023/05/06 01:17:59;;;;;;;20.27;10.27;;;;;;;;;;4942198;28;20133;-60
2023/05/06 01:21:40;;;;;;;22.45;10.40;;;;;;;;;;4954286;28;20042;-59
2023/05/06 01:25:21;;;;;;;20.60;10.80;;;;;;;;;;4964757;28;20070;-59
2023/05/06 01:29:02;;;;;;;21.40;10.48;;;;;;;;;;4943247;28;20601;-62
2023/05/06 01:32:59;;;;;;;19.15;9.80;;;;;;;;;;4943638;28;20543;-59
2023/05/06 01:36:31;;;;;;;18.83;10.38;;;;;;;;;;4942782;28;20050;-66
2023/05/06 01:40:13;;;;;;;18.58;10.30;;;;;;;;;;4940942;28;20054;-60
2023/05/06 01:43:53;;;;;;;19.50;10.43;;;;;;;;;;4944283;28;20636;-60
2023/05/06 01:47:34;;;;;;;22.20;10.50;;;;;;;;;;4943130;28;20050;-59
2023/05/06 01:51:14;;;;;;;16.40;9.70;;;;;;;;;;4988856;28;20548;-59
2023/05/06 01:54:54;;;;;;;16.88;9.88;;;;;;;;;;4985905;28;20057;-62
2023/05/06 01:58:36;;;;;;;18.58;9.68;;;;;;;;;;4988524;28;20482;-58
2023/05/06 02:02:15;;;;;;;18.45;9.95;;;;;;;;;;4987133;28;20144;-60
2023/05/06 02:05:56;;;;;;;18.75;9.98;;;;;;;;;;4988013;28;20298;-59
2023/05/06 02:09:37;;;;;;;21.75;9.80;;;;;;;;;;4988555;28;20459;-62
2023/05/06 02:13:18;;;;;;;17.55;9.95;;;;;;;;;;4990760;28;22385;-59
2023/05/06 02:16:58;;;;;;;19.70;10.15;;;;;;;;;;4987818;28;20130;-62
2023/05/06 02:20:38;;;;;;;17.38;8.77;;;;;;;;;;4988637;28;20512;-58
2023/05/06 02:24:19;;;;;;;19.30;8.30;;;;;;;;;;4988792;28;20045;-59
2023/05/06 02:27:59;;;;;;;16.35;7.95;;;;;;;;;;4987692;28;20417;-60
2023/05/06 02:31:39;;;;;;;19.60;8.23;;;;;;;;;;4988751;28;20081;-60
2023/05/06 02:35:19;;;;;;;13.38;7.50;;;;;;;;;;4986108;28;20141;-60
2023/05/06 02:39:00;;;;;;;12.90;7.45;;;;;;;;;;4988213;28;20042;-59
2023/05/06 02:42:40;;;;;;;16.10;8.07;;;;;;;;;;4990940;28;20057;-60
2023/05/06 02:46:20;;;;;;;15.85;7.80;;;;;;;;;;4987236;28;20425;-58
2023/05/06 02:50:01;;;;;;;18.48;8.15;;;;;;;;;;4989481;28;20054;-56
2023/05/06 02:53:41;;;;;;;16.27;7.80;;;;;;;;;;4989293;28;20068;-59
2023/05/06 02:57:22;;;;;;;17.17;7.72;;;;;;;;;;4990234;28;20042;-60
2023/05/06 03:01:03;;;;;;;16.75;8.30;;;;;;;;;;4991151;28;20060;-58
2023/05/06 03:04:44;;;;;;;14.98;8.15;;;;;;;;;;5010509;28;20739;-58
2023/05/06 03:08:24;;;;;;;13.18;7.43;;;;;;;;;;5009522;28;20053;-58
2023/05/06 03:12:05;;;;;;;15.05;7.72;;;;;;;;;;5013543;28;20111;-59
2023/05/06 03:15:46;;;;;;;20.85;7.45;;;;;;;;;;5011606;28;20189;-57
2023/05/06 03:19:26;;;;;;;15.43;7.60;;;;;;;;;;5016021;28;20132;-60
2023/05/06 03:23:06;;;;;;;13.32;7.90;;;;;;;;;;5010079;28;20508;-58
2023/05/06 03:26:47;;;;;;;15.95;7.20;;;;;;;;;;5010455;28;20123;-59
2023/05/06 03:30:27;;;;;;;13.90;7.75;;;;;;;;;;5012186;28;20485;-60
2023/05/06 03:34:07;;;;;;;12.40;7.38;;;;;;;;;;5011837;28;20444;-59
2023/05/06 03:37:48;;;;;;;12.23;7.53;;;;;;;;;;5008967;28;20047;-59
2023/05/06 03:41:28;;;;;;;15.52;7.95;;;;;;;;;;5009819;28;20148;-59
2023/05/06 03:45:08;;;;;;;13.20;6.97;;;;;;;;;;5015624;28;20547;-57
2023/05/06 03:48:49;;;;;;;13.95;7.10;;;;;;;;;;5012999;28;20412;-57
2023/05/06 03:52:29;;;;;;;20.88;7.50;;;;;;;;;;5011221;28;20081;-59
2023/05/06 03:56:09;;;;;;;19.25;8.10;;;;;;;;;;5011637;28;20475;-58
2023/05/06 03:59:50;;;;;;;16.15;7.90;;;;;;;;;;5011913;28;20061;-60
2023/05/06 04:03:30;;;;;;;13.90;7.55;;;;;;;;;;4995052;28;20494;-58
2023/05/06 04:07:10;;;;;;;16.20;8.10;;;;;;;;;;4987837;28;20049;-59
2023/05/06 04:10:51;;;;;;;13.18;7.50;;;;;;;;;;4990473;28;20609;-59
2023/05/06 04:14:24;;;;;;;15.50;7.70;;;;;;;;;;4987075;28;20069;-59
2023/05/06 04:18:06;;;;;;;15.88;7.72;;;;;;;;;;4989835;28;20050;-59
2023/05/06 04:21:45;;;;;;;17.60;8.25;;;;;;;;;;4998593;28;20843;-56
2023/05/06 04:25:26;;;;;;;17.05;7.63;;;;;;;;;;4991172;28;20501;-57
2023/05/06 04:29:06;;;;;;;17.13;7.82;;;;;;;;;;4988491;28;20469;-57
2023/05/06 04:32:46;;;;;;;17.38;7.88;;;;;;;;;;4989816;28;20112;-59
2023/05/06 04:36:30;;;;;;;17.10;7.80;;;;;;;;;;4988504;28;20494;-59
2023/05/06 04:40:11;;;;;;;14.70;6.95;;;;;;;;;;4989889;28;20489;-57
2023/05/06 04:43:50;;;;;;;16.27;7.20;;;;;;;;;;4988108;28;20053;-57
2023/05/06 04:47:31;;;;;;;14.27;7.25;;;;;;;;;;4988377;28;20053;-59
2023/05/06 04:51:12;;;;;;;14.27;7.20;;;;;;;;;;4990370;28;20053;-56
2023/05/06 04:54:51;;;;;;;12.52;6.40;;;;;;;;;;4989813;28;20133;-58
2023/05/06 04:58:32;;;;;;;14.05;6.43;;;;;;;;;;4987632;28;20041;-58
2023/05/06 05:02:14;;;;;;;13.27;6.80;;;;;;;;;;4988053;28;20422;-57
2023/05/06 05:05:54;;;;;;;13.15;6.55;;;;;;;;;;4985502;28;20200;-58
2023/05/06 05:09:34;;;;;;;17.45;7.82;;;;;;;;;;4986999;28;20540;-59
2023/05/06 05:13:15;;;;;;;15.32;6.43;;;;;;;;;;4988979;28;20054;-59
2023/05/06 05:16:56;;;;;;;17.90;6.88;;;;;;;;;;4986629;28;20077;-59
2023/05/06 05:20:36;;;;;;;13.18;6.15;;;;;;;;;;4991906;28;20045;-60
2023/05/06 05:24:16;;;;;;;16.52;6.05;;;;;;;;;;4989435;28;20050;-58
2023/05/06 05:27:58;;;;;;;12.82;6.13;;;;;;;;;;4985906;28;20633;-59
2023/05/06 05:31:41;;;;;;;13.20;5.90;;;;;;;;;;4992126;28;20056;-61
2023/05/06 05:35:22;;;;;;;14.23;6.03;;;;;;;;;;4994919;28;20307;-63
2023/05/06 05:39:02;;;;;;;14.52;5.80;;;;;;;;;;4988101;28;20054;-61
2023/05/06 05:42:43;;;;;;;9.90;5.70;;;;;;;;;;4988635;28;20108;-61
2023/05/06 05:46:23;;;;;;;13.88;6.40;;;;;;;;;;4983101;28;20046;-61
2023/05/06 05:50:06;;;;;;;11.05;5.88;;;;;;;;;;4988417;28;20072;-60
2023/05/06 05:53:47;;;;;;;8.90;5.25;;;;;;;;;;4985235;28;20054;-60
2023/05/06 05:57:29;;;;;;;12.68;6.15;;;;;;;;;;4988312;28;20326;-63
2023/05/06 06:01:11;;;;;;;12.52;5.97;;;;;;;;;;4988949;28;20049;-60
2023/05/06 06:05:08;;;;;;;14.27;5.88;;;;;;;;;;4984670;28;20327;-59
2023/05/06 06:08:48;;;;;;;12.95;6.28;;;;;;;;;;4984647;28;20245;-64
2023/05/06 06:12:28;;;;;;;14.10;6.00;;;;;;;;;;4976019;28;21960;-63
2023/05/06 06:16:09;;;;;;;11.57;6.13;;;;;;;;;;4979862;28;20050;-61
2023/05/06 06:19:50;;;;;;;13.55;6.63;;;;;;;;;;4989093;28;20045;-62
2023/05/06 06:23:29;;;;;;;13.93;5.97;;;;;;;;;;4982670;28;20204;-59
2023/05/06 06:27:10;;;;;;;13.00;6.75;;;;;;;;;;4987764;28;20095;-64
2023/05/06 06:30:50;;;;;;;14.98;6.60;;;;;;;;;;4983912;28;20042;-64
2023/05/06 06:34:30;;;;;;;12.25;5.63;;;;;;;;;;4988047;28;20132;-63
2023/05/06 06:38:11;;;;;;;11.40;5.32;;;;;;;;;;4986582;28;20049;-63
2023/05/06 06:41:52;;;;;;;8.60;5.10;;;;;;;;;;4982228;28;20049;-62
2023/05/06 06:45:33;;;;;;;10.23;5.72;;;;;;;;;;4985906;28;20859;-66
2023/05/06 06:49:14;;;;;;;10.18;4.95;;;;;;;;;;4985609;28;20085;-63
2023/05/06 06:52:54;;;;;;;17.10;5.32;;;;;;;;;;4981484;28;20508;-63
2023/05/06 06:56:35;;;;;;;12.65;5.45;;;;;;;;;;4986830;28;20050;-63
2023/05/06 07:00:15;;;;;;;12.13;5.60;;;;;;;;;;4983783;28;20050;-62
2023/05/06 07:03:56;;;;;;;12.60;5.38;;;;;;;;;;4984551;28;20184;-64
2023/05/06 07:07:36;;;;;;;15.10;5.43;;;;;;;;;;4988679;28;20049;-65
2023/05/06 07:11:16;;;;;;;9.38;5.32;;;;;;;;;;4987828;28;20111;-64
2023/05/06 07:14:57;;;;;;;13.05;5.53;;;;;;;;;;4987006;28;20054;-63
2023/05/06 07:18:37;;;;;;;12.13;5.88;;;;;;;;;;4984917;28;20067;-62
2023/05/06 07:22:17;;;;;;;10.15;5.55;;;;;;;;;;4993831;28;20054;-63
2023/05/06 07:25:58;;;;;;;13.50;6.07;;;;;;;;;;4983744;28;20073;-67
2023/05/06 07:29:38;;;;;;;10.32;6.05;;;;;;;;;;4989921;28;20034;-64
2023/05/06 07:33:18;;;;;;;12.65;6.60;;;;;;;;;;4983416;28;20065;-65
2023/05/06 07:36:59;;;;;;;18.08;8.23;;;;;;;;;;4984995;28;22288;-65
2023/05/06 07:40:39;;;;;;;12.65;5.72;;;;;;;;;;4983083;28;20272;-64
2023/05/06 07:44:19;;;;;;;11.82;6.05;;;;;;;;;;4989731;28;20046;-65
2023/05/06 07:48:06;;;;;;;10.38;5.63;;;;;;;;;;4989061;28;20046;-66
2023/05/06 07:51:46;;;;;;;14.20;5.38;;;;;;;;;;4986718;28;20536;-65
2023/05/06 07:55:28;;;;;;;10.13;5.07;;;;;;;;;;4988488;28;20053;-62
2023/05/06 07:59:08;;;;;;;13.07;5.50;;;;;;;;;;4989059;28;20152;-62
2023/05/06 08:02:49;;;;;;;12.43;5.55;;;;;;;;;;4986246;28;20077;-61
2023/05/06 08:06:31;;;;;;;9.07;5.05;;;;;;;;;;4986043;28;20409;-63
2023/05/06 08:10:10;;;;;;;10.18;4.95;;;;;;;;;;4985415;28;20053;-63
2023/05/06 08:13:51;;;;;;;10.55;5.00;;;;;;;;;;4987865;28;20046;-64
2023/05/06 08:17:32;;;;;;;9.23;4.72;;;;;;;;;;4987067;28;21994;-63
2023/05/06 08:21:12;;;;;;;11.50;4.95;;;;;;;;;;4989977;28;20128;-62
2023/05/06 08:24:53;;;;;;;10.63;4.80;;;;;;;;;;4983526;28;20057;-65
2023/05/06 08:28:33;;;;;;;10.43;4.55;;;;;;;;;;4989441;28;20060;-63
2023/05/06 08:32:14;;;;;;;10.80;5.30;;;;;;;;;;4985346;28;20057;-64
2023/05/06 08:35:56;;;;;;;9.48;4.75;;;;;;;;;;4986041;28;20157;-65
2023/05/06 08:39:34;;;;;;;12.15;5.20;;;;;;;;;;4983689;28;20071;-62
2023/05/06 08:43:15;;;;;;;12.18;5.10;;;;;;;;;;4986875;28;20104;-72
2023/05/06 08:46:55;;;;;;;21.00;4.70;;;;;;;;;;4985951;28;20060;-65
2023/05/06 08:50:36;;;;;;;11.50;4.80;;;;;;;;;;4985888;28;20053;-66
2023/05/06 08:54:16;;;;;;;9.63;5.00;;;;;;;;;;4984871;28;20338;-64
2023/05/06 08:57:26;;;;;;;13.48;4.55;;;;;;;;;;4985414;28;20053;-69
2023/05/06 09:00:27;;;;;;;11.60;4.40;;;;;;;;;;4983058;28;22326;-64
2023/05/06 09:02:53;;;;;;;11.73;4.03;;;;;;;;;;4987173;28;20066;-63
2023/05/06 09:05:59;;;;;;;8.13;3.88;;;;;;;;;;4986025;28;20045;-65
2023/05/06 09:09:39;;;;;;;13.23;4.05;;;;;;;;;;4984453;28;20528;-68
2023/05/06 09:13:20;;;;;;;11.32;4.40;;;;;;;;;;4981507;28;20053;-67
2023/05/06 09:17:06;;;;;;;14.80;4.47;;;;;;;;;;4985937;28;20037;-67
2023/05/06 09:20:26;;;;;;;;;;;;;;;;;;4985506;28;20321;-63
2023/05/06 09:24:07;;;;;;;7.57;4.63;;;;;;;;;;4990984;28;19930;-69
2023/05/06 09:27:47;;;;;;;11.98;4.22;;;;;;;;;;4986113;28;20061;-67
2023/05/06 09:31:28;;;;;;;36.10;8.65;;;;;;;;;;4986262;28;20073;-65
2023/05/06 09:35:09;;;;;;;24.58;6.47;;;;;;;;;;4985592;28;20081;-66
2023/05/06 09:38:48;;;;;;;14.00;4.78;;;;;;;;;;4986814;28;20041;-66
2023/05/06 09:42:30;;;;;;;13.25;4.55;;;;;;;;;;4982960;28;20728;-67
2023/05/06 09:46:10;;;;;;;12.60;4.25;;;;;;;;;;4987326;28;20045;-64
2023/05/06 09:49:51;;;;;;;10.25;3.88;;;;;;;;;;4983433;28;20509;-64
2023/05/06 09:53:31;;;;;;;17.95;4.93;;;;;;;;;;4985239;28;20053;-66
2023/05/06 09:57:14;;;;;;;12.40;4.18;;;;;;;;;;4982562;28;20050;-68
2023/05/06 10:00:53;;;;;;;12.75;4.55;;;;;;;;;;4982947;28;20111;-64
2023/05/06 10:04:35;;;;;;;11.25;4.63;;;;;;;;;;4986391;28;20156;-65
2023/05/06 10:08:17;;;;;;;10.43;4.15;;;;;;;;;;4985445;28;20049;-68
2023/05/06 10:11:55;;;;;;;10.75;5.30;;;;;;;;;;4983523;28;20528;-65
2023/05/06 10:15:36;;;;;;;9.18;4.05;;;;;;;;;;4992559;28;20050;-63
2023/05/06 10:19:18;;;;;;;8.55;4.13;;;;;;;;;;4996956;28;20461;-66
2023/05/06 10:22:44;;;;;;;14.15;5.75;;;;;;;;;;5000947;28;20095;-65
2023/05/06 10:26:24;;;;;;;12.13;5.25;;;;;;;;;;5000462;28;20049;-64
2023/05/06 10:30:05;;;;;;;14.88;6.60;;;;;;;;;;4997721;28;20061;-66
2023/05/06 10:33:45;;;;;;;13.20;5.75;;;;;;;;;;4998728;28;20133;-68
2023/05/06 10:36:52;;;;;;;10.73;5.25;;;;;;;;;;4998681;28;20046;-67
2023/05/06 10:39:19;;;;;;;16.93;5.53;;;;;;;;;;4999411;28;20050;-64
2023/05/06 10:41:47;;;;;;;11.60;4.10;;;;;;;;;;5003601;28;20070;-66
2023/05/06 10:44:13;;;;;;;8.73;4.03;;;;;;;;;;4999460;28;20050;-66
2023/05/06 10:47:22;;;;;;;11.13;4.22;;;;;;;;;;4962093;28;20096;-64
2023/05/06 10:51:06;;;;;;;9.60;3.92;;;;;;;;;;4983197;28;20041;-66
2023/05/06 10:54:47;;;;;;;9.30;3.70;;;;;;;;;;4982651;28;20046;-69
2023/05/06 10:58:32;;;;;;;6.82;3.47;;;;;;;;;;4983089;28;20323;-66
2023/05/06 11:02:14;;;;;;;12.20;3.60;;;;;;;;;;4980340;28;20782;-69
2023/05/06 11:06:10;;;;;;;5.18;2.92;;;;;;;;;;4981993;28;20571;-67
2023/05/06 11:09:55;;;;;;;7.97;2.70;;;;;;;;;;4980113;28;20053;-67
2023/05/06 11:13:43;;;;;;;7.63;3.08;;;;;;;;;;4979640;28;20049;-66
2023/05/06 11:17:27;;;;;;;6.95;2.95;;;;;;;;;;4984249;28;20618;-66
2023/05/06 11:21:07;;;;;;;9.02;3.50;;;;;;;;;;4988176;28;20046;-70
2023/05/06 11:24:28;;;;;;;6.97;2.70;;;;;;;;;;4978570;28;20042;-66
2023/05/06 11:28:09;;;;;;;4.45;2.15;;;;;;;;;;4986524;28;20750;-64
2023/05/06 11:31:50;;;;;;;6.03;2.55;;;;;;;;;;4986215;28;20058;-66
2023/05/06 11:35:30;;;;;;;6.22;2.35;;;;;;;;;;4986326;28;20054;-67
2023/05/06 11:39:29;;;;;;;5.60;2.15;;;;;;;;;;4985788;28;20054;-65
2023/05/06 11:43:08;;;;;;;6.60;2.70;;;;;;;;;;4983063;28;20054;-65
2023/05/06 11:46:49;;;;;;;5.18;2.53;;;;;;;;;;4985101;28;20042;-65
2023/05/06 11:50:32;;;;;;;6.50;2.50;;;;;;;;;;4987554;28;20054;-64
2023/05/06 11:54:14;;;;;;;6.43;2.30;;;;;;;;;;4991981;28;20052;-65
2023/05/06 11:57:53;;;;;;;6.22;1.52;;;;;;;;;;4986710;28;20053;-64
2023/05/06 12:01:33;;;;;;;5.35;1.63;;;;;;;;;;4989929;28;20046;-62
2023/05/06 12:05:16;;;;;;;5.20;1.55;;;;;;;;;;4992040;28;20081;-62
2023/05/06 12:08:58;;;;;;;2.85;1.50;;;;;;;;;;4989104;28;20153;-64
2023/05/06 12:12:38;;;;;;;5.40;1.52;;;;;;;;;;4992445;28;20132;-61
2023/05/06 12:16:21;;;;;;;7.50;1.52;;;;;;;;;;4993800;28;20061;-62
2023/05/06 12:20:00;;;;;;;2.38;1.30;;;;;;;;;;5000972;28;20417;-64
2023/05/06 12:23:43;;;;;;;4.40;1.88;;;;;;;;;;5005064;28;20045;-63
2023/05/06 12:27:25;;;;;;;2.90;1.48;;;;;;;;;;4991723;28;20045;-61
2023/05/06 12:31:08;;;;;;;3.60;2.03;;;;;;;;;;4991256;28;20106;-61
2023/05/06 12:34:55;;;;;;;4.10;1.80;;;;;;;;;;4994648;28;20169;-62
2023/05/06 12:38:34;;;;;;;4.20;1.70;;;;;;;;;;4995073;28;20263;-63
2023/05/06 12:42:16;;;;;;;11.48;1.88;;;;;;;;;;4992511;28;20144;-64
2023/05/06 12:45:56;;;;;;;4.72;1.70;;;;;;;;;;4994564;28;21972;-61
2023/05/06 12:49:36;;;;;;;3.13;1.35;;;;;;;;;;4994102;28;20077;-63
2023/05/06 12:53:17;;;;;;;2.65;1.50;;;;;;;;;;4993206;28;20060;-60
2023/05/06 12:56:57;;;;;;;5.65;1.83;;;;;;;;;;4994637;28;20555;-63
2023/05/06 13:00:37;;;;;;;4.60;1.77;;;;;;;;;;4994566;28;20041;-63
2023/05/06 13:04:18;;;;;;;5.88;1.88;;;;;;;;;;4990350;28;20056;-59
2023/05/06 13:07:58;;;;;;;5.78;2.17;;;;;;;;;;4990103;28;20050;-63
2023/05/06 13:11:38;;;;;;;4.50;2.10;;;;;;;;;;4987289;28;20540;-61
2023/05/06 13:15:20;;;;;;;4.85;1.60;;;;;;;;;;4989714;28;20042;-61
2023/05/06 13:19:00;;;;;;;3.80;1.88;;;;;;;;;;4988911;28;20460;-61
2023/05/06 13:22:41;;;;;;;3.15;1.63;;;;;;;;;;4994259;28;20049;-65
2023/05/06 13:26:22;;;;;;;4.60;1.98;;;;;;;;;;4986638;28;20509;-63
2023/05/06 13:30:03;;;;;;;3.60;1.77;;;;;;;;;;4989006;28;20721;-61
2023/05/06 13:33:43;;;;;;;3.28;1.65;;;;;;;;;;4984857;28;20051;-62
2023/05/06 13:37:24;;;;;;;4.13;1.90;;;;;;;;;;4986871;28;20089;-62
2023/05/06 13:41:05;;;;;;;5.00;1.80;;;;;;;;;;4986934;28;20056;-65
2023/05/06 13:44:45;;;;;;;5.10;2.22;;;;;;;;;;4988141;28;21802;-64
2023/05/06 13:48:25;;;;;;;5.97;1.92;;;;;;;;;;4988025;28;20057;-64
2023/05/06 13:52:06;;;;;;;3.85;1.60;;;;;;;;;;4986711;28;20093;-63
2023/05/06 13:55:46;;;;;;;5.82;1.80;;;;;;;;;;4989430;28;20139;-64
2023/05/06 13:59:27;;;;;;;4.82;2.03;;;;;;;;;;4986768;28;20057;-66
2023/05/06 14:03:07;;;;;;;5.85;2.03;;;;;;;;;;4985516;28;20053;-62
2023/05/06 14:06:48;;;;;;;5.32;2.10;;;;;;;;;;4986672;28;20054;-64
2023/05/06 14:10:29;;;;;;;9.38;1.80;;;;;;;;;;4985325;28;20053;-63
2023/05/06 14:14:10;;;;;;;5.25;1.63;;;;;;;;;;4985287;28;20045;-62
2023/05/06 14:17:51;;;;;;;4.32;2.15;;;;;;;;;;4987985;28;20091;-63
2023/05/06 14:21:31;;;;;;;3.92;1.58;;;;;;;;;;4988259;28;20452;-62
2023/05/06 14:25:13;;;;;;;4.78;1.55;;;;;;;;;;4988843;28;20038;-61
2023/05/06 14:28:53;;;;;;;4.75;1.75;;;;;;;;;;4985327;28;20084;-64
2023/05/06 14:32:33;;;;;;;4.07;1.55;;;;;;;;;;4985448;28;20761;-61
2023/05/06 14:36:13;;;;;;;4.63;1.73;;;;;;;;;;4987677;28;20057;-60
2023/05/06 14:39:54;;;;;;;9.25;1.40;;;;;;;;;;4986368;28;20729;-62
2023/05/06 14:43:34;;;;;;;3.05;1.20;;;;;;;;;;4987917;28;22100;-61
2023/05/06 14:47:14;;;;;;;3.65;1.35;;;;;;;;;;4987214;28;20164;-63
2023/05/06 14:50:55;;;;;;;4.80;1.50;;;;;;;;;;4985563;28;20046;-61
2023/05/06 14:54:41;;;;;;;4.97;1.50;;;;;;;;;;4992425;28;20054;-63
2023/05/06 14:58:20;;;;;;;5.20;1.20;;;;;;;;;;4991428;28;20606;-63
2023/05/06 15:02:00;;;;;;;2.28;1.10;;;;;;;;;;4989307;28;20084;-68
2023/05/06 15:05:41;;;;;;;3.58;1.42;;;;;;;;;;4993430;28;20519;-63
2023/05/06 15:09:21;;;;;;;5.30;1.27;;;;;;;;;;4995884;28;20061;-63
2023/05/06 15:13:02;;;;;;;4.43;1.58;;;;;;;;;;4991117;28;21428;-65
2023/05/06 15:16:42;;;;;;;3.42;1.23;;;;;;;;;;4985307;28;20056;-64
2023/05/06 15:20:22;;;;;;;4.30;1.15;;;;;;;;;;4994338;28;20484;-64
2023/05/06 15:24:03;;;;;;;2.60;1.10;;;;;;;;;;4993665;28;20069;-62
2023/05/06 15:27:43;;;;;;;4.90;0.95;;;;;;;;;;4992783;28;20073;-63
2023/05/06 15:31:23;;;;;;;4.45;1.30;;;;;;;;;;4989374;28;20057;-62
2023/05/06 15:35:04;;;;;;;3.85;1.55;;;;;;;;;;4992727;28;20049;-64
2023/05/06 15:38:44;;;;;;;5.97;1.60;;;;;;;;;;4996839;28;20500;-62
2023/05/06 15:42:24;;;;;;;4.72;1.52;;;;;;;;;;4994840;28;20053;-62
2023/05/06 15:46:05;;;;;;;3.55;1.65;;;;;;;;;;4991928;28;20061;-62
2023/05/06 15:49:45;;;;;;;4.43;1.27;;;;;;;;;;4993664;28;20064;-64
2023/05/06 15:53:27;;;;;;;3.60;1.50;;;;;;;;;;4990957;28;20499;-63
2023/05/06 15:57:06;;;;;;;4.47;1.48;;;;;;;;;;4993131;28;20045;-62
2023/05/06 16:00:46;;;;;;;5.28;1.40;;;;;;;;;;4990343;28;20480;-62
2023/05/06 16:04:27;;;;;;;5.80;1.70;;;;;;;;;;4994722;28;20141;-61
2023/05/06 16:08:07;;;;;;;5.70;1.40;;;;;;;;;;4993542;28;20054;-63
2023/05/06 16:11:48;;;;;;;3.30;1.33;;;;;;;;;;4991428;28;20061;-61
2023/05/06 16:15:28;;;;;;;6.88;1.38;;;;;;;;;;4991787;28;20710;-63
2023/05/06 16:19:08;;;;;;;6.50;1.60;;;;;;;;;;4992534;28;20718;-64
2023/05/06 16:22:49;;;;;;;5.20;1.65;;;;;;;;;;4991780;28;20046;-64
2023/05/06 16:26:29;;;;;;;3.08;1.25;;;;;;;;;;4990868;28;20053;-64
2023/05/06 16:30:10;;;;;;;5.15;1.63;;;;;;;;;;4988553;28;20113;-63
2023/05/06 16:33:52;;;;;;;6.43;1.90;;;;;;;;;;4994938;28;20333;-64
2023/05/06 16:37:32;;;;;;;4.57;1.58;;;;;;;;;;4992670;28;20056;-64
2023/05/06 16:41:12;;;;;;;5.47;1.35;;;;;;;;;;4991542;28;20381;-64
2023/05/06 16:44:52;;;;;;;3.03;1.80;;;;;;;;;;4994570;28;20046;-65
2023/05/06 16:48:33;;;;;;;6.22;1.20;;;;;;;;;;4992012;28;20500;-64
2023/05/06 16:52:13;;;;;;;4.20;1.20;;;;;;;;;;4990355;28;20046;-63
2023/05/06 16:55:55;;;;;;;5.03;1.38;;;;;;;;;;4989766;28;20062;-64
2023/05/06 16:59:35;;;;;;;7.15;1.48;;;;;;;;;;4989392;28;20061;-61
2023/05/06 17:03:16;;;;;;;4.25;1.45;;;;;;;;;;4988953;28;20548;-64
2023/05/06 17:06:56;;;;;;;3.25;1.30;;;;;;;;;;4989009;28;20091;-64
2023/05/06 17:10:36;;;;;;;9.05;1.50;;;;;;;;;;4988325;28;20056;-64
2023/05/06 17:14:18;;;;;;;5.88;2.80;;;;;;;;;;4986303;28;20046;-64
2023/05/06 17:17:57;;;;;;;3.28;1.70;;;;;;;;;;4988142;28;20046;-61
2023/05/06 17:21:37;;;;;;;9.43;1.50;;;;;;;;;;4987737;28;20120;-65
2023/05/06 17:25:18;;;;;;;8.00;1.67;;;;;;;;;;4987218;28;20057;-61
2023/05/06 17:28:58;;;;;;;7.18;1.80;;;;;;;;;;4985797;28;20569;-62
2023/05/06 17:32:38;;;;;;;7.57;1.23;;;;;;;;;;4983352;28;20056;-67
2023/05/06 17:36:19;;;;;;;4.18;1.80;;;;;;;;;;4983633;28;20062;-67
2023/05/06 17:39:59;;;;;;;5.88;1.40;;;;;;;;;;4986779;28;20057;-68
2023/05/06 17:43:40;;;;;;;5.68;1.73;;;;;;;;;;4983016;28;20570;-69
2023/05/06 17:47:23;;;;;;;7.38;1.80;;;;;;;;;;4985950;28;20045;-64
2023/05/06 17:51:05;;;;;;;9.73;1.45;;;;;;;;;;4986692;28;20053;-67
2023/05/06 17:54:45;;;;;;;6.63;1.42;;;;;;;;;;4983380;28;20064;-67
2023/05/06 17:58:27;;;;;;;4.45;1.40;;;;;;;;;;4982749;28;20077;-67
2023/05/06 18:02:08;;;;;;;6.25;1.60;;;;;;;;;;4985980;28;20571;-67
2023/05/06 18:05:48;;;;;;;5.05;1.45;;;;;;;;;;4984245;28;21425;-68
2023/05/06 18:09:28;;;;;;;3.38;1.30;;;;;;;;;;4985029;28;20057;-67
2023/05/06 18:13:09;;;;;;;6.70;2.42;;;;;;;;;;4986910;28;20061;-63
2023/05/06 18:16:49;;;;;;;14.20;2.92;;;;;;;;;;4987341;28;21451;-68
2023/05/06 18:20:30;;;;;;;9.27;2.55;;;;;;;;;;4996003;28;20053;-68
2023/05/06 18:24:10;;;;;;;3.88;1.90;;;;;;;;;;4988467;28;20050;-67
2023/05/06 18:27:50;;;;;;;3.70;1.60;;;;;;;;;;4985198;28;20062;-66
2023/05/06 18:31:31;;;;;;;5.20;1.85;;;;;;;;;;4983255;28;20054;-68
2023/05/06 18:35:11;;;;;;;4.53;1.75;;;;;;;;;;4985172;28;20479;-70
2023/05/06 18:38:51;;;;;;;6.50;1.58;;;;;;;;;;4991721;28;20042;-68
2023/05/06 18:42:31;;;;;;;7.10;1.80;;;;;;;;;;4988754;28;20528;-66
2023/05/06 18:46:12;;;;;;;5.63;1.88;;;;;;;;;;4989132;28;20081;-66
2023/05/06 18:49:52;;;;;;;3.75;1.45;;;;;;;;;;4985476;28;20123;-67
2023/05/06 18:53:32;;;;;;;13.15;2.80;;;;;;;;;;4985569;28;20060;-66
2023/05/06 18:57:13;;;;;;;10.18;1.80;;;;;;;;;;4978061;28;20078;-65
2023/05/06 19:00:54;;;;;;;4.18;2.08;;;;;;;;;;4983305;28;20509;-66
2023/05/06 19:04:34;;;;;;;5.00;1.30;;;;;;;;;;4974821;28;20053;-68
2023/05/06 19:08:15;;;;;;;5.43;1.73;;;;;;;;;;4979822;28;20062;-67
2023/05/06 19:11:55;;;;;;;2.50;1.40;;;;;;;;;;4978643;28;20058;-69
2023/05/06 19:15:36;;;;;;;6.55;2.00;;;;;;;;;;4978680;28;20069;-66
2023/05/06 19:19:16;;;;;;;3.95;2.05;;;;;;;;;;4978555;28;20084;-69
2023/05/06 19:22:57;;;;;;;5.65;1.95;;;;;;;;;;4981038;28;20702;-68
2023/05/06 19:26:38;;;;;;;4.45;1.38;;;;;;;;;;4982796;28;20164;-67
2023/05/06 19:30:18;;;;;;;5.30;1.77;;;;;;;;;;4979269;28;20057;-69
2023/05/06 19:33:58;;;;;;;8.60;1.80;;;;;;;;;;4975881;28;20081;-67
2023/05/06 19:37:39;;;;;;;3.13;1.40;;;;;;;;;;4978026;28;20375;-67
2023/05/06 19:41:19;;;;;;;4.45;1.55;;;;;;;;;;4983342;28;20049;-66
2023/05/06 19:45:00;;;;;;;4.32;1.40;;;;;;;;;;4979601;28;20053;-64
2023/05/06 19:48:40;;;;;;;3.50;1.65;;;;;;;;;;4982892;28;20038;-65
2023/05/06 19:52:20;;;;;;;3.88;1.90;;;;;;;;;;4980762;28;20058;-65
2023/05/06 19:56:01;;;;;;;7.07;1.67;;;;;;;;;;4976248;28;20052;-66
2023/05/06 19:59:42;;;;;;;8.82;1.98;;;;;;;;;;4983810;28;20061;-68
2023/05/06 20:03:22;;;;;;;4.90;2.28;;;;;;;;;;4985446;28;20145;-63
2023/05/06 20:07:03;;;;;;;4.55;1.80;;;;;;;;;;4986585;28;20142;-62
2023/05/06 20:10:44;;;;;;;6.03;2.22;;;;;;;;;;4982353;28;20057;-67
2023/05/06 20:14:24;;;;;;;4.65;1.95;;;;;;;;;;4985287;28;20477;-64
2023/05/06 20:18:06;;;;;;;3.08;1.75;;;;;;;;;;4985440;28;20053;-64
2023/05/06 20:21:45;;;;;;;7.53;2.33;;;;;;;;;;4987475;28;22776;-68
2023/05/06 20:25:26;;;;;;;6.05;1.85;;;;;;;;;;4985532;28;20049;-65
2023/05/06 20:29:06;;;;;;;4.95;1.92;;;;;;;;;;4983425;28;20480;-65
2023/05/06 20:32:46;;;;;;;10.30;2.22;;;;;;;;;;4985220;28;22001;-64
2023/05/06 20:36:27;;;;;;;6.78;2.35;;;;;;;;;;4986147;28;20057;-65
2023/05/06 20:40:07;;;;;;;9.45;2.92;;;;;;;;;;4984684;28;20053;-66
2023/05/06 20:43:47;;;;;;;6.60;2.80;;;;;;;;;;4987135;28;20046;-63
2023/05/06 20:47:28;;;;;;;5.15;2.72;;;;;;;;;;4986210;28;20145;-65
2023/05/06 20:51:08;;;;;;;10.63;4.40;;;;;;;;;;4987501;28;20046;-65
2023/05/06 20:54:48;;;;;;;8.98;3.47;;;;;;;;;;4985614;28;20631;-63
2023/05/06 20:58:30;;;;;;;10.02;3.45;;;;;;;;;;4985865;28;20715;-64
2023/05/06 21:02:10;;;;;;;6.05;2.80;;;;;;;;;;4986139;28;20475;-64
2023/05/06 21:05:51;;;;;;;10.43;2.90;;;;;;;;;;4987161;28;20505;-65
2023/05/06 21:09:31;;;;;;;6.72;2.70;;;;;;;;;;4985704;28;20066;-62
2023/05/06 21:13:11;;;;;;;10.80;3.13;;;;;;;;;;4988918;28;20112;-62
2023/05/06 21:16:55;;;;;;;9.07;2.90;;;;;;;;;;4987401;28;20052;-64
2023/05/06 21:20:35;;;;;;;8.55;2.97;;;;;;;;;;4990163;28;20255;-63
2023/05/06 21:24:15;;;;;;;8.75;2.95;;;;;;;;;;4988266;28;20054;-62
2023/05/06 21:27:56;;;;;;;5.53;2.65;;;;;;;;;;4985685;28;20171;-64
2023/05/06 21:31:36;;;;;;;8.82;2.95;;;;;;;;;;4986896;28;20068;-62
2023/05/06 21:35:16;;;;;;;14.00;3.25;;;;;;;;;;4986015;28;20046;-63
2023/05/06 21:38:56;;;;;;;7.28;2.72;;;;;;;;;;4989358;28;20042;-62
2023/05/06 21:42:38;;;;;;;12.48;3.40;;;;;;;;;;4989062;28;20592;-64